Time;durP1;ratioP1;P1;durP2;ratioP2;P2;SDS_P1;SDS_P2;PMS_P1;PMS_P2;Temp;Humidity;BMP_temperature;BMP_pressure;BME280_temperature;BME280_humidity;BME280_pressure;Samples;Min_cycle;Max_cycle;Signal;HPM_P1;HPM_P2
2022/06/02 00:00:25;;;;;;;3.00;2.80;;;15.80;74.10;;;;;;4989840;28;24449;-69
2022/06/02 00:02:52;;;;;;;3.00;2.80;;;15.80;74.50;;;;;;5008072;28;24558;-69
2022/06/02 00:05:33;;;;;;;6.60;2.80;;;15.80;74.80;;;;;;5009851;28;24515;-69
2022/06/02 00:08:06;;;;;;;3.67;2.80;;;15.80;75.20;;;;;;5006309;28;24456;-69
2022/06/02 00:10:44;;;;;;;3.00;2.80;;;15.70;75.60;;;;;;5006078;28;25068;-70
2022/06/02 00:13:20;;;;;;;3.45;2.70;;;15.70;75.80;;;;;;4990456;28;24427;-69
2022/06/02 00:15:54;;;;;;;3.30;3.00;;;15.60;76.10;;;;;;4990174;28;24518;-69
2022/06/02 00:18:40;;;;;;;3.10;2.90;;;15.60;76.50;;;;;;4990502;28;24431;-68
2022/06/02 00:21:30;;;;;;;3.47;3.17;;;15.50;76.80;;;;;;4990349;28;25044;-69
2022/06/02 00:24:13;;;;;;;3.20;3.00;;;15.50;77.40;;;;;;4991836;28;25018;-69
2022/06/02 00:27:03;;;;;;;3.70;3.40;;;15.50;77.40;;;;;;4991010;28;24536;-69
2022/06/02 00:29:47;;;;;;;3.55;3.25;;;15.40;77.70;;;;;;4963127;28;24463;-69
2022/06/02 00:32:22;;;;;;;3.30;3.10;;;15.40;77.90;;;;;;5009944;28;24519;-69
2022/06/02 00:35:14;;;;;;;3.50;3.20;;;15.40;78.10;;;;;;4994129;28;25068;-69
2022/06/02 00:38:18;;;;;;;3.30;3.10;;;15.40;78.40;;;;;;4960794;28;24978;-69
2022/06/02 00:40:46;;;;;;;3.13;2.92;;;15.30;78.70;;;;;;4991213;28;24974;-69
2022/06/02 00:43:28;;;;;;;3.50;3.20;;;15.40;78.80;;;;;;4989161;28;25042;-70
2022/06/02 00:46:24;;;;;;;3.30;3.10;;;15.30;78.70;;;;;;4989802;28;24821;-69
2022/06/02 00:49:10;;;;;;;3.60;3.30;;;15.30;78.80;;;;;;4999291;28;24814;-69
2022/06/02 00:51:50;;;;;;;3.75;3.45;;;15.30;79.20;;;;;;4998224;28;24447;-70
2022/06/02 00:57:33;;;;;;;4.10;3.80;;;15.20;79.80;;;;;;4990569;28;24517;-68
2022/06/02 01:00:09;;;;;;;3.80;3.50;;;15.20;80.10;;;;;;4996412;28;25025;-69
2022/06/02 01:03:04;;;;;;;3.50;3.20;;;15.20;80.40;;;;;;5010133;28;24439;-69
2022/06/02 01:06:13;;;;;;;3.60;3.40;;;15.20;80.40;;;;;;4986048;28;24445;-69
2022/06/02 01:09:02;;;;;;;4.10;3.45;;;15.20;80.80;;;;;;4987719;28;24459;-68
2022/06/02 01:11:53;;;;;;;3.75;3.50;;;15.10;81.10;;;;;;4988065;28;24456;-69
2022/06/02 01:14:26;;;;;;;4.00;3.60;;;15.10;81.10;;;;;;4990745;28;24864;-67
2022/06/02 01:16:53;;;;;;;3.90;3.60;;;15.00;81.30;;;;;;5000797;28;25075;-68
2022/06/02 01:19:47;;;;;;;4.03;3.63;;;15.00;81.50;;;;;;4993946;28;24448;-72
2022/06/02 01:22:25;;;;;;;5.18;3.90;;;14.90;81.70;;;;;;5008140;28;24535;-70
2022/06/02 01:25:25;;;;;;;3.88;3.58;;;14.90;82.30;;;;;;5008180;28;24931;-68
2022/06/02 01:28:04;;;;;;;4.00;3.70;;;14.90;82.60;;;;;;4999997;28;24537;-68
2022/06/02 01:30:46;;;;;;;3.75;3.50;;;14.80;83.50;;;;;;4989595;28;24417;-68
2022/06/02 01:33:15;;;;;;;4.53;4.00;;;14.80;83.30;;;;;;5006913;28;24448;-68
2022/06/02 01:36:17;;;;;;;4.40;4.00;;;14.70;83.90;;;;;;5008863;28;24447;-68
2022/06/02 01:38:49;;;;;;;4.40;4.10;;;14.70;84.40;;;;;;4970700;28;24455;-69
2022/06/02 01:41:32;;;;;;;3.92;3.70;;;14.60;84.90;;;;;;4988128;28;24985;-68
2022/06/02 01:44:11;;;;;;;4.40;4.00;;;14.50;85.30;;;;;;5007457;28;24444;-68
2022/06/02 01:46:44;;;;;;;4.30;3.90;;;14.50;85.80;;;;;;5008625;28;24786;-69
2022/06/02 01:49:27;;;;;;;4.40;4.00;;;14.50;85.80;;;;;;5008755;28;24547;-68
2022/06/02 01:52:32;;;;;;;5.35;3.90;;;14.50;86.00;;;;;;5004007;28;24502;-69
2022/06/02 01:55:16;;;;;;;4.97;4.20;;;14.50;86.40;;;;;;4988314;28;24990;-71
2022/06/02 01:58:07;;;;;;;4.70;4.20;;;14.50;86.60;;;;;;4990605;28;24843;-68
2022/06/02 02:00:35;;;;;;;4.80;4.40;;;14.50;86.70;;;;;;4988942;28;24444;-68
2022/06/02 02:03:20;;;;;;;5.97;4.80;;;14.40;86.90;;;;;;5007801;28;24954;-68
2022/06/02 02:06:15;;;;;;;5.03;4.60;;;14.40;87.10;;;;;;5004889;28;24463;-68
2022/06/02 02:09:01;;;;;;;5.53;4.83;;;14.40;87.30;;;;;;4988930;28;24540;-68
2022/06/02 02:11:42;;;;;;;5.05;4.55;;;14.30;87.80;;;;;;4989052;28;24476;-68
2022/06/02 02:14:27;;;;;;;5.88;4.97;;;14.30;88.10;;;;;;4990411;28;24428;-67
2022/06/02 02:17:29;;;;;;;6.00;4.85;;;14.30;88.70;;;;;;4999301;28;24540;-69
2022/06/02 02:20:01;;;;;;;5.78;4.80;;;14.20;88.80;;;;;;5008812;28;24926;-68
2022/06/02 02:22:46;;;;;;;5.90;5.30;;;14.10;89.50;;;;;;5009748;28;24428;-68
2022/06/02 02:25:28;;;;;;;6.15;4.75;;;14.10;89.80;;;;;;5009476;28;24978;-69
2022/06/02 02:28:15;;;;;;;5.60;5.00;;;14.00;90.00;;;;;;5008331;28;25145;-69
2022/06/02 02:31:03;;;;;;;5.50;5.00;;;14.00;90.20;;;;;;5010561;28;24441;-68
2022/06/02 02:33:57;;;;;;;5.80;5.20;;;14.00;90.30;;;;;;4992534;28;25005;-69
2022/06/02 02:36:51;;;;;;;5.40;4.90;;;13.90;90.50;;;;;;5012905;28;24451;-68
2022/06/02 02:39:29;;;;;;;6.35;5.75;;;13.80;90.60;;;;;;5009986;28;24535;-68
2022/06/02 02:42:02;;;;;;;7.05;5.45;;;13.80;90.80;;;;;;4991636;28;24427;-68
2022/06/02 02:44:48;;;;;;;6.15;5.40;;;13.80;90.90;;;13.64;nan;100914.69;4992178;28;24540;-68
2022/06/02 02:47:34;;;;;;;5.80;5.30;;;13.80;91.10;;;14.05;nan;100913.13;4974409;28;25126;-68
2022/06/02 02:50:37;;;;;;;6.25;5.65;;;13.70;91.60;;;14.08;nan;100918.13;4982140;28;24475;-70
2022/06/02 02:53:21;;;;;;;6.60;5.72;;;13.70;91.40;;;14.01;nan;100916.00;4997320;28;24448;-68
2022/06/02 02:56:19;;;;;;;6.00;5.40;;;13.70;91.40;;;13.98;nan;100918.88;4994173;28;24444;-68
2022/06/02 02:59:23;;;;;;;6.20;5.60;;;13.70;91.60;;;13.97;nan;100914.59;4994107;28;24810;-68
2022/06/02 03:02:28;;;;;;;6.05;5.53;;;13.60;91.90;;;13.92;nan;100911.53;4991190;28;24471;-68
2022/06/02 03:05:22;;;;;;;7.70;6.05;;;13.60;92.00;;;13.87;nan;100925.94;4997799;28;24519;-68
2022/06/02 03:07:49;;;;;;;7.20;5.82;;;13.50;92.30;;;13.87;nan;100928.56;4983525;28;24674;-69
2022/06/02 03:10:38;;;;;;;7.55;6.00;;;13.50;92.40;;;13.85;nan;100928.72;4990174;28;24473;-72
2022/06/02 03:14:08;;;;;;;6.97;6.28;;;13.50;92.40;;;13.77;nan;100931.13;4992620;28;24986;-68
2022/06/02 03:16:38;;;;;;;6.82;6.13;;;13.50;92.70;;;13.75;nan;100930.41;4923871;28;25024;-69
2022/06/02 03:19:19;;;;;;;6.60;5.90;;;13.40;92.80;;;13.75;nan;100935.66;4973837;28;24444;-69
2022/06/02 03:21:54;;;;;;;8.23;6.00;;;13.40;92.90;;;13.74;nan;100935.75;4991833;28;24459;-69
2022/06/02 03:25:01;;;;;;;8.80;6.00;;;13.40;93.00;;;13.74;nan;100936.59;4974202;28;24436;-68
2022/06/02 03:28:08;;;;;;;6.80;6.10;;;13.40;93.30;;;13.72;nan;100937.66;4981104;28;24894;-68
2022/06/02 03:31:20;;;;;;;8.40;6.40;;;13.40;93.30;;;13.69;nan;100941.38;4974705;28;24834;-68
2022/06/02 03:34:09;;;;;;;7.40;6.30;;;13.30;93.40;;;13.64;nan;100938.31;4956058;28;24560;-67
2022/06/02 03:37:17;;;;;;;6.57;5.88;;;13.30;93.70;;;13.69;nan;100944.00;5001767;28;24997;-69
2022/06/02 03:40:22;;;;;;;7.70;6.25;;;13.30;93.70;;;13.73;nan;100944.59;4990860;28;24967;-68
2022/06/02 03:43:14;;;;;;;7.17;6.07;;;13.40;93.70;;;13.69;nan;100951.84;4982302;28;24459;-68
2022/06/02 03:46:19;;;;;;;7.22;6.30;;;13.40;93.70;;;13.70;nan;100955.31;4993437;28;25057;-69
2022/06/02 03:49:26;;;;;;;4.80;4.40;;;13.40;93.80;;;13.85;nan;100952.31;5012538;28;20245;-69
2022/06/02 03:52:10;;;;;;;5.90;5.30;;;13.50;93.80;;;14.00;nan;100958.09;4967748;28;21223;-69
2022/06/02 03:55:08;;;;;;;5.20;4.40;;;13.60;93.50;;;14.06;nan;100965.47;5012122;28;21193;-70
2022/06/02 03:58:43;;;;;;;5.80;5.30;;;13.70;93.30;;;14.06;nan;100967.25;4960333;28;20996;-70
2022/06/02 04:01:24;;;;;;;5.93;3.70;;;13.60;93.50;;;14.16;nan;100970.84;4957903;28;20664;-69
2022/06/02 04:04:11;;;;;;;8.97;5.40;;;13.70;93.30;;;14.34;nan;100970.19;5005517;28;20641;-69
2022/06/02 04:06:51;;;;;;;7.87;5.37;;;13.90;92.90;;;14.47;nan;100972.63;4994174;28;21209;-69
2022/06/02 04:09:25;;;;;;;6.73;5.77;;;14.10;92.70;;;14.55;nan;100983.31;5008127;28;21137;-70
2022/06/02 04:15:31;;;;;;;6.90;6.10;;;14.30;91.80;;;14.53;nan;100972.97;4998743;28;20633;-69
2022/06/02 04:18:18;;;;;;;9.00;6.07;;;14.30;91.80;;;14.55;nan;100972.81;5011871;28;20636;-70
2022/06/02 04:21:09;;;;;;;7.30;5.50;;;14.20;92.20;;;14.55;nan;100975.44;5009666;23;21107;-67
2022/06/02 04:23:50;;;;;;;5.23;4.70;;;14.20;92.20;;;14.77;nan;100975.34;4980678;28;20631;-67
2022/06/02 04:26:47;;;;;;;6.73;4.57;;;14.40;92.00;;;15.02;nan;100976.72;4991042;28;21450;-67
2022/06/02 04:29:39;;;;;;;6.60;5.03;;;14.70;91.60;;;15.37;nan;100977.16;4988533;28;20673;-68
2022/06/02 04:32:30;;;;;;;5.30;4.30;;;15.00;90.90;;;15.67;nan;100986.84;4991771;28;20669;-68
2022/06/02 04:35:06;;;;;;;5.80;4.60;;;15.30;90.30;;;15.99;nan;100982.22;4990310;28;20650;-67
2022/06/02 04:38:05;;;;;;;5.07;4.57;;;15.70;89.70;;;16.29;nan;100982.91;4989983;28;20638;-68
2022/06/02 04:40:59;;;;;;;7.47;4.87;;;16.00;88.20;;;16.57;nan;100989.19;4975036;28;20762;-69
2022/06/02 04:44:02;;;;;;;5.50;5.00;;;16.30;86.60;;;16.76;nan;100991.81;4997981;28;20638;-68
2022/06/02 04:46:48;;;;;;;7.77;5.47;;;16.50;85.70;;;16.93;nan;100998.97;5010473;28;20625;-69
2022/06/02 04:49:31;;;;;;;7.13;5.57;;;16.60;85.20;;;17.13;nan;100991.03;5010401;28;20661;-67
2022/06/02 04:52:34;;;;;;;6.70;5.47;;;16.90;84.00;;;17.41;nan;100992.72;5000883;28;20753;-68
2022/06/02 04:55:31;;;;;;;6.20;5.60;;;17.10;83.40;;;17.43;nan;100988.13;5005156;28;20683;-68
2022/06/02 04:58:41;;;;;;;6.82;6.13;;;17.20;82.60;;;17.35;nan;100982.75;5007286;28;24436;-70
2022/06/02 05:01:26;;;;;;;8.17;5.90;;;17.10;82.80;;;17.49;nan;100990.19;4976922;28;25053;-67
2022/06/02 05:04:27;;;;;;;9.82;6.40;;;17.30;82.30;;;17.80;nan;100991.59;4988459;28;25050;-67
2022/06/02 05:07:12;;;;;;;8.43;6.38;;;17.60;81.70;;;18.15;nan;100996.09;4986608;28;24449;-67
2022/06/02 05:10:20;;;;;;;7.63;6.10;;;18.00;80.50;;;18.50;nan;100999.63;4986882;28;24441;-66
2022/06/02 05:13:15;;;;;;;7.18;6.40;;;18.30;79.50;;;18.73;nan;101001.75;4951675;28;24445;-67
2022/06/02 05:15:59;;;;;;;6.72;6.03;;;18.60;78.00;;;18.80;nan;101005.44;4970098;28;24442;-68
2022/06/02 05:19:04;;;;;;;6.80;6.10;;;18.60;78.20;;;18.87;nan;100998.56;4970831;28;24947;-68
2022/06/02 05:21:40;;;;;;;7.05;6.35;;;18.60;78.00;;;19.03;nan;101002.16;4986046;28;24455;-68
2022/06/02 05:24:54;;;;;;;7.28;6.40;;;18.80;78.00;;;19.30;nan;101003.78;4988274;28;24435;-70
2022/06/02 05:28:01;;;;;;;7.85;6.22;;;19.10;76.20;;;19.53;nan;101004.13;4936976;28;24440;-68
2022/06/02 05:30:46;;;;;;;8.38;6.45;;;19.30;74.80;;;19.56;nan;101017.84;4978949;28;24472;-67
2022/06/02 05:33:46;;;;;;;6.70;5.55;;;19.30;74.70;;;19.99;nan;101025.63;4989352;28;24448;-68
2022/06/02 05:36:54;;;;;;;6.80;6.10;;;19.90;72.90;;;20.35;nan;101022.75;4988555;28;24548;-68
2022/06/02 05:40:08;;;;;;;10.73;6.25;;;20.20;73.10;;;20.69;nan;101024.28;4969822;28;25108;-67
2022/06/02 05:43:21;;;;;;;7.45;6.22;;;20.50;71.90;;;21.30;nan;101023.72;4959933;28;24449;-68
2022/06/02 05:46:16;;;;;;;6.93;6.22;;;21.00;71.30;;;21.83;nan;101027.56;4971969;28;24631;-68
2022/06/02 05:48:54;;;;;;;6.20;5.60;;;21.50;69.60;;;22.10;nan;101032.38;4989562;28;24512;-67
2022/06/02 05:51:56;;;;;;;9.20;5.80;;;21.80;68.10;;;22.37;nan;101038.03;4989173;28;24494;-69
2022/06/02 05:55:05;;;;;;;4.97;4.57;;;22.10;66.90;;;22.49;nan;101041.06;4978144;28;20261;-68
2022/06/02 05:57:52;;;;;;;5.17;4.70;;;22.20;66.40;;;23.03;nan;101045.31;4973216;28;20617;-66
2022/06/02 06:00:57;;;;;;;4.70;4.20;;;22.70;65.20;;;23.42;nan;101042.47;4973842;28;20657;-65
2022/06/02 06:04:22;;;;;;;4.77;3.60;;;23.20;63.40;;;23.53;nan;101057.16;4968611;28;20668;-67
2022/06/02 06:06:56;;;;;;;4.87;4.10;;;23.30;62.40;;;23.32;nan;101051.72;4975922;28;20642;-66
2022/06/02 06:09:56;;;;;;;4.70;4.33;;;23.10;62.50;;;23.72;nan;101046.75;4975002;28;20650;-66
2022/06/02 06:12:48;;;;;;;5.27;4.87;;;23.40;62.70;;;24.26;nan;101052.56;4991035;28;21208;-66
2022/06/02 06:16:06;;;;;;;5.03;4.60;;;23.90;61.00;;;24.91;nan;101056.91;4974880;28;20630;-66
2022/06/02 06:19:25;;;;;;;4.23;3.83;;;24.80;58.50;;;25.68;nan;101045.16;4936543;28;20640;-66
2022/06/02 06:22:11;;;;;;;5.47;4.97;;;25.40;57.30;;;25.79;nan;101049.09;4969751;28;20689;-64
2022/06/02 06:25:00;;;;;;;5.60;5.03;;;25.60;56.50;;;26.46;nan;101057.13;5003535;28;20675;-67
2022/06/02 06:27:45;;;;;;;5.30;4.27;;;26.20;55.90;;;27.02;nan;101050.41;4987927;28;20630;-65
2022/06/02 06:31:07;;;;;;;5.20;4.70;;;26.80;54.40;;;27.51;nan;101048.06;4983979;28;24523;-68
2022/06/02 06:33:54;;;;;;;5.73;4.30;;;27.70;52.70;;;28.43;nan;101061.09;4992999;28;20214;-67
2022/06/02 06:36:43;;;;;;;6.93;3.67;;;28.20;51.80;;;29.43;nan;101065.50;4981919;28;21211;-68
2022/06/02 06:39:58;;;;;;;5.17;4.77;;;29.10;50.70;;;30.10;nan;101054.56;4991110;28;20658;-67
2022/06/02 06:42:55;;;;;;;5.10;4.10;;;29.70;49.20;;;30.68;nan;101057.47;4991578;28;20653;-68
2022/06/02 06:46:08;;;;;;;4.30;3.90;;;30.20;48.20;;;30.85;nan;101063.00;4993110;28;20629;-67
2022/06/02 06:48:49;;;;;;;5.10;4.70;;;30.80;47.10;;;31.32;nan;101053.91;4993387;28;20680;-68
2022/06/02 06:51:45;;;;;;;4.90;4.40;;;30.90;46.90;;;32.43;nan;101054.31;4992534;28;20672;-69
2022/06/02 06:54:40;;;;;;;10.33;4.57;;;32.10;46.00;;;33.17;nan;101063.13;4981779;28;21252;-65
2022/06/02 06:57:24;;;;;;;6.03;5.20;;;32.60;45.10;;;33.09;nan;101064.38;4991150;28;20630;-65
2022/06/02 07:00:05;;;;;;;4.87;4.50;;;33.40;43.30;;;32.70;nan;101055.34;4991818;28;20688;-66
2022/06/02 07:02:59;;;;;;;8.10;5.20;;;32.30;44.30;;;33.83;nan;101068.38;4992542;28;20630;-66
2022/06/02 07:05:52;;;;;;;6.30;5.70;;;33.40;43.60;;;33.61;nan;101064.84;4991893;28;20630;-68
2022/06/02 07:08:28;;;;;;;;;;;33.20;43.30;;;33.39;nan;101066.69;4985910;28;20485;-68
2022/06/02 07:11:07;;;;;;;6.05;5.45;;;33.40;42.80;;;34.74;nan;101064.75;4990037;28;20746;-67
2022/06/02 07:13:48;;;;;;;6.07;5.47;;;34.50;42.40;;;35.61;nan;101065.09;4991532;28;20270;-68
2022/06/02 07:16:26;;;;;;;6.47;5.87;;;35.30;42.00;;;35.74;nan;101069.22;4989538;28;21162;-69
2022/06/02 07:19:21;;;;;;;6.53;5.20;;;35.40;40.90;;;34.07;nan;101069.78;4997815;28;20671;-72
2022/06/02 07:22:14;;;;;;;;;;;34.30;40.90;;;33.84;nan;101063.78;4971967;28;20481;-68
2022/06/02 07:25:23;;;;;;;5.70;5.20;;;33.70;41.20;;;35.94;nan;101058.44;4981424;28;20209;-67
2022/06/02 07:28:02;;;;;;;5.20;4.80;;;35.60;40.60;;;37.11;nan;101061.03;4907747;29;20642;-64
2022/06/02 07:30:49;;;;;;;5.93;5.43;;;36.60;40.00;;;37.44;nan;101059.59;4923137;29;20686;-65
2022/06/02 07:33:23;;;;;;;7.37;5.10;;;37.40;38.70;;;37.61;nan;101049.16;4969850;28;20633;-68
2022/06/02 07:36:04;;;;;;;4.70;4.30;;;37.70;38.20;;;37.45;nan;101055.78;4990014;28;20617;-69
2022/06/02 07:39:20;;;;;;;4.90;4.50;;;37.20;38.30;;;37.68;nan;101055.13;4994369;28;20599;-69
2022/06/02 07:42:21;;;;;;;4.80;4.30;;;37.10;37.80;;;39.15;nan;101053.03;4989628;28;20668;-67
2022/06/02 07:45:26;;;;;;;5.93;5.43;;;38.90;36.80;;;37.21;nan;101039.22;4969214;28;20634;-64
2022/06/02 07:48:14;;;;;;;6.60;5.63;;;37.50;36.90;;;35.85;nan;101041.00;4969638;28;20664;-68
2022/06/02 07:51:19;;;;;;;3.73;3.53;;;36.20;38.10;;;37.35;nan;101047.66;4984009;28;20684;-67
2022/06/02 07:54:13;;;;;;;3.23;3.03;;;37.00;37.30;;;39.13;nan;101051.69;4977959;28;20761;-69
2022/06/02 07:56:56;;;;;;;4.93;4.00;;;38.80;35.80;;;39.09;nan;101045.97;4981466;28;20685;-68
2022/06/02 07:59:54;;;;;;;4.67;3.70;;;38.90;35.40;;;40.15;nan;101031.00;4970766;28;20622;-67
2022/06/02 08:02:30;;;;;;;4.40;4.00;;;39.90;34.90;;;40.88;nan;101033.94;4975918;28;20630;-68
2022/06/02 08:05:18;;;;;;;4.57;4.37;;;40.70;34.60;;;41.30;nan;101049.31;4972051;28;20691;-68
2022/06/02 08:07:55;;;;;;;3.40;3.30;;;41.30;34.00;;;41.59;nan;101050.59;4990084;28;20623;-70
2022/06/02 08:10:59;;;;;;;3.80;3.50;;;41.50;33.70;;;41.45;nan;101060.75;5002790;28;20756;-65
2022/06/02 08:13:40;;;;;;;3.43;3.23;;;41.20;33.50;;;41.02;nan;101064.06;4991562;28;20692;-65
2022/06/02 08:16:17;;;;;;;2.90;2.80;;;41.00;33.40;;;41.08;nan;101050.00;4973027;28;20648;-68
2022/06/02 08:19:44;;;;;;;3.80;3.60;;;40.70;33.60;;;40.11;nan;101049.13;4972254;28;20625;-65
2022/06/02 08:22:20;;;;;;;2.50;2.40;;;41.00;33.20;;;41.26;nan;101051.84;4950320;28;1078916;-65
2022/06/02 08:25:08;;;;;;;3.47;3.37;;;40.90;33.60;;;40.58;nan;101040.75;4991524;28;20213;-66
2022/06/02 08:28:04;;;;;;;3.60;3.40;;;40.80;33.30;;;39.85;nan;101047.81;4988944;28;20637;-68
2022/06/02 08:30:46;;;;;;;3.97;3.77;;;39.60;33.60;;;38.03;nan;101038.66;4979642;28;20705;-67
2022/06/02 08:33:29;;;;;;;4.70;4.30;;;37.90;34.50;;;37.07;nan;101045.53;4992919;28;20619;-68
2022/06/02 08:36:27;;;;;;;3.30;3.00;;;36.90;35.20;;;36.90;nan;101040.38;4990558;28;20642;-65
2022/06/02 08:39:26;;;;;;;3.40;3.13;;;36.90;35.10;;;36.54;nan;101042.28;4988710;28;21045;-67
2022/06/02 08:42:36;;;;;;;4.50;3.27;;;36.40;35.60;;;36.33;nan;101031.66;4989778;28;20666;-67
2022/06/02 08:45:46;;;;;;;3.80;3.60;;;35.80;36.20;;;36.51;nan;101036.56;4989227;28;20630;-68
2022/06/02 08:48:42;;;;;;;3.60;3.40;;;36.10;36.00;;;36.03;nan;101040.56;4990988;28;20626;-67
2022/06/02 08:52:04;;;;;;;2.97;2.80;;;36.00;35.90;;;36.46;nan;101039.28;4972570;28;20679;-65
2022/06/02 08:55:19;;;;;;;3.87;3.43;;;35.90;35.80;;;35.75;nan;101035.56;4973604;28;21003;-65
2022/06/02 08:58:52;;;;;;;2.80;2.70;;;35.50;36.10;;;35.37;nan;101041.34;4990833;28;20618;-68
2022/06/02 09:01:59;;;;;;;5.53;2.80;;;35.10;36.20;;;34.42;nan;101044.94;4988199;28;20799;-66
2022/06/02 09:04:52;;;;;;;4.33;3.93;;;35.00;36.30;;;33.87;nan;101053.25;4985785;28;20707;-67
2022/06/02 09:07:38;;;;;;;3.13;2.93;;;33.60;37.20;;;35.00;nan;101052.22;4987389;28;20639;-66
2022/06/02 09:10:49;;;;;;;3.50;3.30;;;34.50;37.00;;;36.91;nan;101052.09;4982655;28;20674;-63
2022/06/02 09:13:31;;;;;;;3.77;3.47;;;36.80;35.40;;;36.44;nan;101044.16;4989194;28;20996;-68
2022/06/02 09:16:22;;;;;;;3.50;3.20;;;36.30;35.50;;;36.75;nan;101048.53;4989714;28;20629;-64
2022/06/02 09:19:14;;;;;;;3.27;3.07;;;36.40;35.40;;;36.94;nan;101046.91;4985581;28;20725;-64
2022/06/02 09:22:33;;;;;;;3.60;3.30;;;36.60;35.70;;;36.15;nan;101043.84;4986860;28;20682;-65
2022/06/02 09:25:51;;;;;;;3.20;3.00;;;36.30;35.90;;;36.44;nan;101041.44;4986055;28;20630;-66
2022/06/02 09:28:51;;;;;;;3.23;3.03;;;36.00;36.80;;;36.77;nan;101034.66;4981764;28;20647;-65
2022/06/02 09:31:47;;;;;;;2.40;2.30;;;36.60;35.70;;;37.00;nan;101034.09;4991362;28;21265;-67
2022/06/02 09:34:36;;;;;;;2.77;2.67;;;36.60;35.30;;;37.59;nan;101029.56;4969434;28;20649;-67
2022/06/02 09:37:33;;;;;;;3.27;3.07;;;37.20;35.00;;;38.37;nan;101030.53;4989695;28;20626;-68
2022/06/02 09:40:30;;;;;;;3.43;3.00;;;37.80;35.00;;;38.34;nan;101041.16;4988863;28;20709;-66
2022/06/02 09:43:30;;;;;;;2.63;2.27;;;38.50;34.60;;;39.11;nan;101030.13;4994816;28;20630;-68
2022/06/02 09:46:40;;;;;;;2.43;2.33;;;38.90;33.60;;;38.82;nan;101032.09;4991646;28;20646;-66
2022/06/02 09:50:02;;;;;;;2.30;2.30;;;38.60;33.50;;;39.81;nan;101030.41;4988543;28;20638;-66
2022/06/02 09:53:37;;;;;;;2.00;1.93;;;39.50;33.50;;;39.97;nan;101029.91;5002669;28;21217;-69
2022/06/02 09:56:26;;;;;;;2.50;2.20;;;39.60;33.20;;;40.11;nan;101040.91;4993067;28;20659;-67
2022/06/02 09:59:24;;;;;;;2.47;2.37;;;39.80;32.90;;;38.17;nan;101021.66;5015081;28;20674;-67
2022/06/02 10:02:23;;;;;;;2.43;2.23;;;38.70;33.20;;;36.84;nan;101029.75;4987776;28;21054;-64
2022/06/02 10:05:33;;;;;;;1.93;1.93;;;37.20;33.60;;;36.66;nan;101028.41;4964161;28;20641;-67
2022/06/02 10:08:33;;;;;;;2.30;2.20;;;36.70;34.50;;;36.71;nan;101024.88;4983726;28;20649;-64
2022/06/02 10:11:25;;;;;;;2.50;2.30;;;36.50;35.30;;;34.81;nan;101019.28;4980261;28;20748;-66
2022/06/02 10:14:33;;;;;;;2.73;2.53;;;34.70;35.60;;;33.93;nan;101018.94;5003383;28;20644;-67
2022/06/02 10:17:34;;;;;;;2.43;2.30;;;33.70;36.40;;;33.00;nan;101019.91;4986995;28;21192;-67
2022/06/02 10:20:11;;;;;;;1.93;1.87;;;32.70;37.10;;;32.35;nan;101013.38;4976823;28;21213;-68
2022/06/02 10:23:03;;;;;;;2.90;2.70;;;31.90;37.60;;;31.00;nan;101002.25;4995968;28;20641;-66
2022/06/02 10:26:00;;;;;;;2.10;2.00;;;30.70;38.50;;;30.22;nan;101001.59;4977192;28;20629;-66
2022/06/02 10:28:51;;;;;;;2.90;2.70;;;29.90;39.60;;;29.48;nan;101001.94;4985908;28;20634;-67
2022/06/02 10:31:58;;;;;;;2.40;2.30;;;29.30;39.90;;;29.05;nan;101007.34;4974953;28;20945;-66
2022/06/02 10:34:34;;;;;;;5.43;1.73;;;28.70;40.70;;;29.02;nan;101010.47;4989831;28;20635;-66
2022/06/02 10:37:40;;;;;;;2.33;1.80;;;28.40;40.80;;;28.98;nan;100995.81;4993502;28;20618;-66
2022/06/02 10:40:53;;;;;;;2.60;2.40;;;28.40;41.30;;;29.28;nan;101019.34;4975370;28;20630;-66
2022/06/02 10:43:55;;;;;;;1.97;1.87;;;28.60;40.80;;;29.12;nan;101012.63;4992624;28;21198;-65
2022/06/02 10:47:03;;;;;;;2.30;2.10;;;28.60;40.60;;;28.79;nan;101010.25;4976447;28;21190;-66
2022/06/02 10:49:55;;;;;;;3.50;2.30;;;28.40;41.30;;;28.12;nan;101012.78;4993621;28;21101;-67
2022/06/02 10:53:15;;;;;;;2.40;2.30;;;27.60;41.70;;;26.81;nan;101003.25;5004484;28;24432;-66
2022/06/02 10:56:21;;;;;;;2.70;2.50;;;26.70;42.50;;;26.88;nan;101000.56;5007576;28;20681;-66
2022/06/02 10:59:22;;;;;;;2.03;1.93;;;26.30;43.30;;;26.75;nan;100995.22;4986782;28;20755;-66
2022/06/02 11:02:24;;;;;;;2.27;2.10;;;26.10;43.40;;;26.62;nan;100997.88;4992892;28;20657;-67
2022/06/02 11:05:47;;;;;;;2.50;2.33;;;26.20;43.40;;;26.32;nan;100993.94;4985068;28;21064;-66
2022/06/02 11:08:54;;;;;;;2.10;2.00;;;26.00;43.60;;;26.36;nan;100989.84;5008459;28;20687;-66
2022/06/02 11:11:39;;;;;;;2.40;2.30;;;25.70;43.80;;;26.59;nan;100983.06;5003242;28;20681;-66
2022/06/02 11:14:48;;;;;;;2.33;2.23;;;26.00;43.70;;;26.45;nan;100983.25;4992993;28;20633;-66
2022/06/02 11:17:36;;;;;;;2.70;2.50;;;25.90;44.00;;;26.61;nan;100993.53;4974245;28;20645;-67
2022/06/02 11:20:03;;;;;;;2.43;2.20;;;26.10;44.20;;;26.33;nan;100993.72;4992404;28;20642;-66
2022/06/02 11:22:49;;;;;;;2.50;2.30;;;25.90;43.90;;;26.29;nan;100978.28;4996369;28;20641;-66
2022/06/02 11:26:06;;;;;;;2.30;2.20;;;25.70;44.70;;;26.06;nan;100979.47;4979245;28;20618;-66
2022/06/02 11:28:48;;;;;;;2.37;2.23;;;25.50;44.80;;;25.84;nan;100985.97;4993347;28;20645;-67
2022/06/02 11:31:31;;;;;;;2.50;2.30;;;25.20;45.50;;;25.34;nan;100978.34;4993135;28;21095;-66
2022/06/02 11:34:17;;;;;;;2.23;2.13;;;24.90;45.50;;;25.08;nan;100975.50;4992666;28;20622;-66
2022/06/02 11:36:58;;;;;;;2.40;1.80;;;24.70;45.90;;;25.17;nan;100977.00;4974459;28;20641;-66
2022/06/02 11:40:02;;;;;;;2.60;2.30;;;24.50;46.10;;;24.87;nan;100980.91;4975013;28;24420;-67
2022/06/02 11:42:47;;;;;;;2.40;2.30;;;24.40;46.70;;;25.20;nan;100969.44;4992807;28;20215;-67
2022/06/02 11:45:33;;;;;;;2.43;2.33;;;24.70;46.70;;;25.17;nan;100963.66;4992051;28;20638;-66
2022/06/02 11:48:43;;;;;;;2.20;2.10;;;24.70;46.10;;;25.25;nan;100960.81;4974900;28;20634;-67
2022/06/02 11:52:03;;;;;;;1.97;1.97;;;24.60;46.50;;;25.54;nan;100962.41;4972294;28;20679;-66
2022/06/02 11:55:21;;;;;;;2.50;2.40;;;25.00;46.20;;;25.66;nan;100958.97;4999007;28;20688;-66
2022/06/02 11:58:15;;;;;;;2.27;2.17;;;25.10;45.70;;;25.59;nan;100960.81;4990828;28;21017;-66
2022/06/02 12:01:16;;;;;;;5.33;2.10;;;25.10;45.30;;;25.75;nan;100963.13;4975154;28;20661;-67
2022/06/02 12:04:25;;;;;;;2.33;2.07;;;25.20;45.60;;;25.94;nan;100958.84;4992846;28;20700;-66
2022/06/02 12:07:22;;;;;;;2.43;2.33;;;25.30;45.50;;;25.70;nan;100949.56;4990787;28;20641;-66
2022/06/02 12:10:25;;;;;;;2.03;1.93;;;25.10;45.60;;;25.76;nan;100946.06;4974781;28;20614;-66
2022/06/02 12:13:37;;;;;;;2.00;1.90;;;25.20;45.80;;;25.74;nan;100941.94;4992640;28;20613;-67
2022/06/02 12:16:26;;;;;;;2.33;2.13;;;25.30;45.70;;;25.65;nan;100935.97;4987300;28;20638;-66
2022/06/02 12:19:20;;;;;;;2.40;2.00;;;25.10;45.70;;;25.66;nan;100936.78;4991790;28;21029;-66
2022/06/02 12:22:24;;;;;;;2.07;1.97;;;25.10;45.70;;;25.44;nan;100936.09;4992422;28;20657;-66
2022/06/02 12:25:24;;;;;;;2.10;1.90;;;25.00;45.70;;;25.58;nan;100948.47;4977822;28;21055;-67
2022/06/02 12:28:19;;;;;;;2.13;1.93;;;24.90;46.10;;;25.52;nan;100938.56;4971365;28;21001;-66
2022/06/02 12:31:17;;;;;;;1.93;1.93;;;24.90;46.70;;;25.29;nan;100940.72;4972136;28;20695;-66
2022/06/02 12:34:26;;;;;;;2.30;2.20;;;24.80;45.60;;;25.36;nan;100938.91;4972635;28;20703;-66
2022/06/02 12:37:39;;;;;;;2.50;2.30;;;24.80;45.90;;;25.66;nan;100936.78;4971976;28;20730;-66
2022/06/02 12:40:17;;;;;;;2.00;1.90;;;25.00;45.70;;;25.65;nan;100930.59;4971294;28;20619;-66
2022/06/02 12:43:03;;;;;;;2.10;1.90;;;25.00;45.80;;;25.61;nan;100931.22;4972283;28;20697;-66
2022/06/02 12:45:49;;;;;;;2.17;2.07;;;25.00;46.20;;;25.77;nan;100920.16;4955711;28;20627;-66
2022/06/02 12:48:55;;;;;;;1.60;1.60;;;25.10;45.60;;;25.68;nan;100916.84;4954539;28;20623;-66
2022/06/02 12:52:12;;;;;;;1.97;1.80;;;25.10;45.90;;;25.75;nan;100909.66;4982785;28;20682;-66
2022/06/02 12:55:07;;;;;;;2.20;2.10;;;25.10;45.50;;;25.58;nan;100905.72;4985075;28;20639;-68